sensor_id;sensor_type;location;lat;lon;timestamp;temperature;humidity
22578;DHT22;11455;52.390;13.028;2022-08-21T00:00:07;20.80;99.90
22578;DHT22;11455;52.390;13.028;2022-08-21T00:02:43;20.80;99.90
22578;DHT22;11455;52.390;13.028;2022-08-21T00:05:10;20.80;99.90
22578;DHT22;11455;52.390;13.028;2022-08-21T00:07:35;20.70;99.90
22578;DHT22;11455;52.390;13.028;2022-08-21T00:10:03;20.70;99.90
22578;DHT22;11455;52.390;13.028;2022-08-21T00:12:31;20.70;99.90
22578;DHT22;11455;52.390;13.028;2022-08-21T00:14:58;20.60;99.90
22578;DHT22;11455;52.390;13.028;2022-08-21T00:17:23;20.70;99.90
22578;DHT22;11455;52.390;13.028;2022-08-21T00:19:49;20.70;99.90
22578;DHT22;11455;52.390;13.028;2022-08-21T00:22:14;20.70;99.90
22578;DHT22;11455;52.390;13.028;2022-08-21T00:24:40;20.70;99.90
22578;DHT22;11455;52.390;13.028;2022-08-21T00:27:08;20.60;99.90
22578;DHT22;11455;52.390;13.028;2022-08-21T00:29:34;20.50;99.90
22578;DHT22;11455;52.390;13.028;2022-08-21T00:31:59;20.50;99.90
22578;DHT22;11455;52.390;13.028;2022-08-21T00:34:25;20.40;99.90
22578;DHT22;11455;52.390;13.028;2022-08-21T00:36:50;20.40;99.90
22578;DHT22;11455;52.390;13.028;2022-08-21T00:39:18;20.30;99.90
22578;DHT22;11455;52.390;13.028;2022-08-21T00:41:44;20.30;99.90
22578;DHT22;11455;52.390;13.028;2022-08-21T00:44:11;20.40;99.90
22578;DHT22;11455;52.390;13.028;2022-08-21T00:46:37;20.40;99.90
22578;DHT22;11455;52.390;13.028;2022-08-21T00:49:03;20.50;99.90
22578;DHT22;11455;52.390;13.028;2022-08-21T00:51:35;20.50;99.90
22578;DHT22;11455;52.390;13.028;2022-08-21T00:54:02;20.60;99.90
22578;DHT22;11455;52.390;13.028;2022-08-21T00:56:27;20.50;99.90
22578;DHT22;11455;52.390;13.028;2022-08-21T00:58:54;20.50;99.90
22578;DHT22;11455;52.390;13.028;2022-08-21T01:01:20;20.50;99.90
22578;DHT22;11455;52.390;13.028;2022-08-21T01:03:46;20.60;99.90
22578;DHT22;11455;52.390;13.028;2022-08-21T01:06:12;20.70;99.90
22578;DHT22;11455;52.390;13.028;2022-08-21T01:08:38;20.60;99.90
22578;DHT22;11455;52.390;13.028;2022-08-21T01:11:04;20.60;99.90
22578;DHT22;11455;52.390;13.028;2022-08-21T01:13:36;20.50;99.90
22578;DHT22;11455;52.390;13.028;2022-08-21T01:16:02;20.50;99.90
22578;DHT22;11455;52.390;13.028;2022-08-21T01:18:28;20.40;99.90
22578;DHT22;11455;52.390;13.028;2022-08-21T01:21:02;20.40;99.90
22578;DHT22;11455;52.390;13.028;2022-08-21T01:23:30;20.40;99.90
22578;DHT22;11455;52.390;13.028;2022-08-21T01:25:56;20.30;99.90
22578;DHT22;11455;52.390;13.028;2022-08-21T01:28:22;20.30;99.90
22578;DHT22;11455;52.390;13.028;2022-08-21T01:30:48;20.30;99.90
22578;DHT22;11455;52.390;13.028;2022-08-21T01:33:15;20.20;99.90
22578;DHT22;11455;52.390;13.028;2022-08-21T01:35:41;20.20;99.90
22578;DHT22;11455;52.390;13.028;2022-08-21T01:38:09;20.20;99.90
22578;DHT22;11455;52.390;13.028;2022-08-21T01:40:35;20.30;99.90
22578;DHT22;11455;52.390;13.028;2022-08-21T01:43:02;20.30;99.90
22578;DHT22;11455;52.390;13.028;2022-08-21T01:45:28;20.30;99.90
22578;DHT22;11455;52.390;13.028;2022-08-21T01:47:54;20.30;99.90
22578;DHT22;11455;52.390;13.028;2022-08-21T01:50:20;20.30;99.90
22578;DHT22;11455;52.390;13.028;2022-08-21T01:52:46;20.40;99.90
22578;DHT22;11455;52.390;13.028;2022-08-21T01:55:13;20.50;99.90
22578;DHT22;11455;52.390;13.028;2022-08-21T01:57:41;20.70;99.90
22578;DHT22;11455;52.390;13.028;2022-08-21T02:00:08;20.80;99.90
22578;DHT22;11455;52.390;13.028;2022-08-21T02:02:37;20.80;99.90
22578;DHT22;11455;52.390;13.028;2022-08-21T02:05:03;20.60;99.90
22578;DHT22;11455;52.390;13.028;2022-08-21T02:07:35;20.60;99.90
22578;DHT22;11455;52.390;13.028;2022-08-21T02:10:01;20.60;99.90
22578;DHT22;11455;52.390;13.028;2022-08-21T02:12:26;20.60;99.90
22578;DHT22;11455;52.390;13.028;2022-08-21T02:14:52;20.80;99.90
22578;DHT22;11455;52.390;13.028;2022-08-21T02:17:17;20.70;99.90
22578;DHT22;11455;52.390;13.028;2022-08-21T02:19:43;20.50;99.90
22578;DHT22;11455;52.390;13.028;2022-08-21T02:22:11;20.40;99.90
22578;DHT22;11455;52.390;13.028;2022-08-21T02:24:37;20.30;99.90
22578;DHT22;11455;52.390;13.028;2022-08-21T02:27:02;20.30;99.90
22578;DHT22;11455;52.390;13.028;2022-08-21T02:29:28;20.30;99.90
22578;DHT22;11455;52.390;13.028;2022-08-21T02:31:53;20.30;99.90
22578;DHT22;11455;52.390;13.028;2022-08-21T02:34:19;20.20;99.90
22578;DHT22;11455;52.390;13.028;2022-08-21T02:36:45;20.10;99.90
22578;DHT22;11455;52.390;13.028;2022-08-21T02:39:10;20.20;99.90
22578;DHT22;11455;52.390;13.028;2022-08-21T02:41:36;20.10;99.90
22578;DHT22;11455;52.390;13.028;2022-08-21T02:44:01;20.20;99.90
22578;DHT22;11455;52.390;13.028;2022-08-21T02:46:29;20.20;99.90
22578;DHT22;11455;52.390;13.028;2022-08-21T02:48:55;20.20;99.90
22578;DHT22;11455;52.390;13.028;2022-08-21T02:51:21;20.40;99.90
22578;DHT22;11455;52.390;13.028;2022-08-21T02:53:53;20.60;99.90
22578;DHT22;11455;52.390;13.028;2022-08-21T02:56:19;20.70;99.90
22578;DHT22;11455;52.390;13.028;2022-08-21T02:58:47;20.90;99.90
22578;DHT22;11455;52.390;13.028;2022-08-21T03:01:14;21.00;99.90
22578;DHT22;11455;52.390;13.028;2022-08-21T03:03:41;21.20;99.90
22578;DHT22;11455;52.390;13.028;2022-08-21T03:06:07;21.40;99.90
22578;DHT22;11455;52.390;13.028;2022-08-21T03:08:33;21.50;99.90
22578;DHT22;11455;52.390;13.028;2022-08-21T03:10:59;21.50;99.90
22578;DHT22;11455;52.390;13.028;2022-08-21T03:13:26;21.40;99.90
22578;DHT22;11455;52.390;13.028;2022-08-21T03:15:53;21.40;99.90
22578;DHT22;11455;52.390;13.028;2022-08-21T03:18:18;21.40;99.90
22578;DHT22;11455;52.390;13.028;2022-08-21T03:20:45;21.50;99.90
22578;DHT22;11455;52.390;13.028;2022-08-21T03:23:11;21.60;99.90
22578;DHT22;11455;52.390;13.028;2022-08-21T03:25:37;21.60;99.90
22578;DHT22;11455;52.390;13.028;2022-08-21T03:28:04;21.60;99.90
22578;DHT22;11455;52.390;13.028;2022-08-21T03:30:30;21.70;54.80
22578;DHT22;11455;52.390;13.028;2022-08-21T03:32:59;21.30;77.20
22578;DHT22;11455;52.390;13.028;2022-08-21T03:35:25;21.00;99.90
22578;DHT22;11455;52.390;13.028;2022-08-21T03:37:51;20.60;99.90
22578;DHT22;11455;52.390;13.028;2022-08-21T03:40:17;20.40;99.90
22578;DHT22;11455;52.390;13.028;2022-08-21T03:42:43;20.30;99.90
22578;DHT22;11455;52.390;13.028;2022-08-21T03:45:12;20.40;99.90
22578;DHT22;11455;52.390;13.028;2022-08-21T03:47:39;20.50;99.90
22578;DHT22;11455;52.390;13.028;2022-08-21T03:50:05;20.60;99.90
22578;DHT22;11455;52.390;13.028;2022-08-21T03:52:31;20.60;99.90
22578;DHT22;11455;52.390;13.028;2022-08-21T03:54:56;20.70;99.90
22578;DHT22;11455;52.390;13.028;2022-08-21T03:57:22;20.60;99.90
22578;DHT22;11455;52.390;13.028;2022-08-21T03:59:50;20.60;99.90
22578;DHT22;11455;52.390;13.028;2022-08-21T04:02:16;20.80;99.90
22578;DHT22;11455;52.390;13.028;2022-08-21T04:04:43;20.90;99.90
22578;DHT22;11455;52.390;13.028;2022-08-21T04:07:09;20.90;99.90
22578;DHT22;11455;52.390;13.028;2022-08-21T04:09:34;21.00;99.90
22578;DHT22;11455;52.390;13.028;2022-08-21T04:12:00;21.00;99.90
22578;DHT22;11455;52.390;13.028;2022-08-21T04:14:26;21.00;99.90
22578;DHT22;11455;52.390;13.028;2022-08-21T04:16:51;21.10;99.90
22578;DHT22;11455;52.390;13.028;2022-08-21T04:19:17;21.10;99.90
22578;DHT22;11455;52.390;13.028;2022-08-21T04:21:42;21.10;99.90
22578;DHT22;11455;52.390;13.028;2022-08-21T04:24:09;21.10;99.40
22578;DHT22;11455;52.390;13.028;2022-08-21T04:26:35;21.00;99.90
22578;DHT22;11455;52.390;13.028;2022-08-21T04:29:01;21.00;99.90
22578;DHT22;11455;52.390;13.028;2022-08-21T04:31:27;21.20;99.90
22578;DHT22;11455;52.390;13.028;2022-08-21T04:33:54;21.20;96.20
22578;DHT22;11455;52.390;13.028;2022-08-21T04:36:20;21.20;97.50
22578;DHT22;11455;52.390;13.028;2022-08-21T04:38:45;21.30;98.50
22578;DHT22;11455;52.390;13.028;2022-08-21T04:41:13;21.10;66.80
22578;DHT22;11455;52.390;13.028;2022-08-21T04:43:39;20.80;99.70
22578;DHT22;11455;52.390;13.028;2022-08-21T04:46:05;20.70;99.90
22578;DHT22;11455;52.390;13.028;2022-08-21T04:48:31;20.60;99.90
22578;DHT22;11455;52.390;13.028;2022-08-21T04:51:08;20.40;99.90
22578;DHT22;11455;52.390;13.028;2022-08-21T04:53:45;20.40;99.90
22578;DHT22;11455;52.390;13.028;2022-08-21T04:56:13;20.40;99.90
22578;DHT22;11455;52.390;13.028;2022-08-21T04:58:39;20.60;99.90
22578;DHT22;11455;52.390;13.028;2022-08-21T05:01:08;20.70;99.90
22578;DHT22;11455;52.390;13.028;2022-08-21T05:03:35;20.90;99.90
22578;DHT22;11455;52.390;13.028;2022-08-21T05:06:03;20.90;92.80
22578;DHT22;11455;52.390;13.028;2022-08-21T05:08:28;20.80;97.10
22578;DHT22;11455;52.390;13.028;2022-08-21T05:10:54;20.70;99.90
22578;DHT22;11455;52.390;13.028;2022-08-21T05:13:20;20.90;90.00
22578;DHT22;11455;52.390;13.028;2022-08-21T05:15:46;21.00;97.90
22578;DHT22;11455;52.390;13.028;2022-08-21T05:18:11;20.90;85.40
22578;DHT22;11455;52.390;13.028;2022-08-21T05:20:37;20.90;68.60
22578;DHT22;11455;52.390;13.028;2022-08-21T05:23:10;20.70;69.10
22578;DHT22;11455;52.390;13.028;2022-08-21T05:25:39;20.70;99.90
22578;DHT22;11455;52.390;13.028;2022-08-21T05:28:05;20.80;98.90
22578;DHT22;11455;52.390;13.028;2022-08-21T05:30:31;20.60;70.80
22578;DHT22;11455;52.390;13.028;2022-08-21T05:32:58;20.30;99.90
22578;DHT22;11455;52.390;13.028;2022-08-21T05:35:24;20.20;99.90
22578;DHT22;11455;52.390;13.028;2022-08-21T05:37:50;19.90;99.90
22578;DHT22;11455;52.390;13.028;2022-08-21T05:40:18;19.70;99.90
22578;DHT22;11455;52.390;13.028;2022-08-21T05:42:43;19.60;99.90
22578;DHT22;11455;52.390;13.028;2022-08-21T05:45:12;19.50;99.90
22578;DHT22;11455;52.390;13.028;2022-08-21T05:47:37;19.50;99.90
22578;DHT22;11455;52.390;13.028;2022-08-21T05:50:03;19.50;99.90
22578;DHT22;11455;52.390;13.028;2022-08-21T05:52:29;19.60;99.90
22578;DHT22;11455;52.390;13.028;2022-08-21T05:54:55;19.50;99.90
22578;DHT22;11455;52.390;13.028;2022-08-21T05:57:21;19.50;99.90
22578;DHT22;11455;52.390;13.028;2022-08-21T05:59:47;19.50;99.90
22578;DHT22;11455;52.390;13.028;2022-08-21T06:02:13;19.50;99.90
22578;DHT22;11455;52.390;13.028;2022-08-21T06:04:38;19.50;99.90
22578;DHT22;11455;52.390;13.028;2022-08-21T06:07:06;19.50;99.90
22578;DHT22;11455;52.390;13.028;2022-08-21T06:09:32;19.40;99.90
22578;DHT22;11455;52.390;13.028;2022-08-21T06:11:58;19.30;99.90
22578;DHT22;11455;52.390;13.028;2022-08-21T06:14:23;19.20;99.90
22578;DHT22;11455;52.390;13.028;2022-08-21T06:16:49;19.30;99.90
22578;DHT22;11455;52.390;13.028;2022-08-21T06:19:15;19.30;99.90
22578;DHT22;11455;52.390;13.028;2022-08-21T06:21:40;19.30;99.90
22578;DHT22;11455;52.390;13.028;2022-08-21T06:24:06;19.30;99.90
22578;DHT22;11455;52.390;13.028;2022-08-21T06:26:32;19.30;99.90
22578;DHT22;11455;52.390;13.028;2022-08-21T06:28:58;19.40;99.90
22578;DHT22;11455;52.390;13.028;2022-08-21T06:31:24;19.40;99.90
22578;DHT22;11455;52.390;13.028;2022-08-21T06:33:51;19.40;99.90
22578;DHT22;11455;52.390;13.028;2022-08-21T06:36:17;19.50;99.90
22578;DHT22;11455;52.390;13.028;2022-08-21T06:38:42;19.60;99.90
22578;DHT22;11455;52.390;13.028;2022-08-21T06:41:08;19.70;99.90
22578;DHT22;11455;52.390;13.028;2022-08-21T06:43:34;19.80;99.90
22578;DHT22;11455;52.390;13.028;2022-08-21T06:45:59;19.80;99.90
22578;DHT22;11455;52.390;13.028;2022-08-21T06:48:29;19.80;99.90
22578;DHT22;11455;52.390;13.028;2022-08-21T06:50:58;19.90;99.90
22578;DHT22;11455;52.390;13.028;2022-08-21T06:53:24;20.00;99.90
22578;DHT22;11455;52.390;13.028;2022-08-21T06:55:50;20.10;99.90
22578;DHT22;11455;52.390;13.028;2022-08-21T06:58:15;20.20;99.90
22578;DHT22;11455;52.390;13.028;2022-08-21T07:00:43;20.20;99.90
22578;DHT22;11455;52.390;13.028;2022-08-21T07:03:20;20.00;99.90
22578;DHT22;11455;52.390;13.028;2022-08-21T07:05:46;20.00;99.90
22578;DHT22;11455;52.390;13.028;2022-08-21T07:08:14;19.90;99.90
22578;DHT22;11455;52.390;13.028;2022-08-21T07:10:39;20.00;99.90
22578;DHT22;11455;52.390;13.028;2022-08-21T07:13:05;20.00;99.90
22578;DHT22;11455;52.390;13.028;2022-08-21T07:15:30;20.10;99.90
22578;DHT22;11455;52.390;13.028;2022-08-21T07:17:57;20.20;99.90
22578;DHT22;11455;52.390;13.028;2022-08-21T07:20:23;20.30;99.90
22578;DHT22;11455;52.390;13.028;2022-08-21T07:22:51;20.20;99.90
22578;DHT22;11455;52.390;13.028;2022-08-21T07:25:16;20.30;99.90
22578;DHT22;11455;52.390;13.028;2022-08-21T07:27:42;20.40;99.90
22578;DHT22;11455;52.390;13.028;2022-08-21T07:30:08;20.60;99.90
22578;DHT22;11455;52.390;13.028;2022-08-21T07:32:33;20.70;90.40
22578;DHT22;11455;52.390;13.028;2022-08-21T07:34:59;20.70;44.80
22578;DHT22;11455;52.390;13.028;2022-08-21T07:37:24;20.70;25.90
22578;DHT22;11455;52.390;13.028;2022-08-21T07:39:50;20.70;1.00
22578;DHT22;11455;52.390;13.028;2022-08-21T07:42:16;20.60;22.40
22578;DHT22;11455;52.390;13.028;2022-08-21T07:44:42;20.60;1.00
22578;DHT22;11455;52.390;13.028;2022-08-21T07:47:10;20.50;26.00
22578;DHT22;11455;52.390;13.028;2022-08-21T07:49:36;20.60;25.70
22578;DHT22;11455;52.390;13.028;2022-08-21T07:52:03;20.90;32.60
22578;DHT22;11455;52.390;13.028;2022-08-21T07:54:28;21.10;11.20
22578;DHT22;11455;52.390;13.028;2022-08-21T07:56:54;21.10;1.00
22578;DHT22;11455;52.390;13.028;2022-08-21T07:59:22;21.20;1.00
22578;DHT22;11455;52.390;13.028;2022-08-21T08:01:48;21.10;1.00
22578;DHT22;11455;52.390;13.028;2022-08-21T08:04:14;21.10;1.00
22578;DHT22;11455;52.390;13.028;2022-08-21T08:06:41;21.20;3.60
22578;DHT22;11455;52.390;13.028;2022-08-21T08:09:07;21.30;1.00
22578;DHT22;11455;52.390;13.028;2022-08-21T08:11:32;21.50;1.00
22578;DHT22;11455;52.390;13.028;2022-08-21T08:13:58;21.40;1.00
22578;DHT22;11455;52.390;13.028;2022-08-21T08:16:25;21.30;1.00
22578;DHT22;11455;52.390;13.028;2022-08-21T08:18:51;21.30;1.00
22578;DHT22;11455;52.390;13.028;2022-08-21T08:21:19;21.30;1.00
22578;DHT22;11455;52.390;13.028;2022-08-21T08:23:46;21.30;1.00
22578;DHT22;11455;52.390;13.028;2022-08-21T08:26:12;21.30;1.00
22578;DHT22;11455;52.390;13.028;2022-08-21T08:28:37;21.40;1.00
22578;DHT22;11455;52.390;13.028;2022-08-21T08:31:03;21.60;1.00
22578;DHT22;11455;52.390;13.028;2022-08-21T08:33:29;21.80;1.00
22578;DHT22;11455;52.390;13.028;2022-08-21T08:35:55;21.80;1.00
22578;DHT22;11455;52.390;13.028;2022-08-21T08:38:21;22.00;1.00
22578;DHT22;11455;52.390;13.028;2022-08-21T08:43:27;22.30;1.00
22578;DHT22;11455;52.390;13.028;2022-08-21T08:45:54;22.30;1.00
22578;DHT22;11455;52.390;13.028;2022-08-21T08:48:30;22.40;1.00
22578;DHT22;11455;52.390;13.028;2022-08-21T08:50:57;22.30;1.00
22578;DHT22;11455;52.390;13.028;2022-08-21T08:53:32;22.00;1.00
22578;DHT22;11455;52.390;13.028;2022-08-21T08:56:00;21.90;1.00
22578;DHT22;11455;52.390;13.028;2022-08-21T08:58:30;21.90;1.00
22578;DHT22;11455;52.390;13.028;2022-08-21T09:00:56;21.90;1.00
22578;DHT22;11455;52.390;13.028;2022-08-21T09:03:22;22.00;1.00
22578;DHT22;11455;52.390;13.028;2022-08-21T09:05:55;22.00;1.00
22578;DHT22;11455;52.390;13.028;2022-08-21T09:08:27;22.00;1.00
22578;DHT22;11455;52.390;13.028;2022-08-21T09:26:24;22.60;1.00
22578;DHT22;11455;52.390;13.028;2022-08-21T09:28:54;22.70;1.00
22578;DHT22;11455;52.390;13.028;2022-08-21T09:31:39;22.80;1.00
22578;DHT22;11455;52.390;13.028;2022-08-21T09:34:07;22.70;1.00
22578;DHT22;11455;52.390;13.028;2022-08-21T09:36:47;22.40;1.00
22578;DHT22;11455;52.390;13.028;2022-08-21T09:39:21;22.40;1.00
22578;DHT22;11455;52.390;13.028;2022-08-21T09:41:49;22.40;1.00
22578;DHT22;11455;52.390;13.028;2022-08-21T09:44:24;22.30;1.00
22578;DHT22;11455;52.390;13.028;2022-08-21T09:46:50;22.30;1.00
22578;DHT22;11455;52.390;13.028;2022-08-21T09:49:25;22.50;1.00
22578;DHT22;11455;52.390;13.028;2022-08-21T09:51:52;22.60;1.00
22578;DHT22;11455;52.390;13.028;2022-08-21T09:54:18;22.70;1.00
22578;DHT22;11455;52.390;13.028;2022-08-21T09:56:56;22.80;1.00
22578;DHT22;11455;52.390;13.028;2022-08-21T09:59:43;22.90;1.00
22578;DHT22;11455;52.390;13.028;2022-08-21T10:02:24;23.00;1.00
22578;DHT22;11455;52.390;13.028;2022-08-21T10:05:00;23.00;1.00
22578;DHT22;11455;52.390;13.028;2022-08-21T10:07:27;22.90;1.00
22578;DHT22;11455;52.390;13.028;2022-08-21T10:12:33;23.10;1.00
22578;DHT22;11455;52.390;13.028;2022-08-21T10:17:47;23.30;1.00
22578;DHT22;11455;52.390;13.028;2022-08-21T10:27:56;23.10;1.00
22578;DHT22;11455;52.390;13.028;2022-08-21T10:30:37;23.00;1.00
22578;DHT22;11455;52.390;13.028;2022-08-21T10:38:52;23.00;1.00
22578;DHT22;11455;52.390;13.028;2022-08-21T10:43:55;23.00;1.00
22578;DHT22;11455;52.390;13.028;2022-08-21T10:51:55;23.10;1.00
22578;DHT22;11455;52.390;13.028;2022-08-21T10:54:25;23.10;1.00
22578;DHT22;11455;52.390;13.028;2022-08-21T10:56:54;23.20;1.00
22578;DHT22;11455;52.390;13.028;2022-08-21T10:59:40;23.20;1.00
22578;DHT22;11455;52.390;13.028;2022-08-21T11:07:14;22.90;1.00
22578;DHT22;11455;52.390;13.028;2022-08-21T11:09:41;23.00;1.00
22578;DHT22;11455;52.390;13.028;2022-08-21T11:12:19;23.10;1.00
22578;DHT22;11455;52.390;13.028;2022-08-21T11:15:00;23.20;1.00
22578;DHT22;11455;52.390;13.028;2022-08-21T11:18:13;23.40;1.00
22578;DHT22;11455;52.390;13.028;2022-08-21T11:22:54;23.30;1.00
22578;DHT22;11455;52.390;13.028;2022-08-21T11:25:32;23.40;1.00
22578;DHT22;11455;52.390;13.028;2022-08-21T11:28:00;23.40;1.00
22578;DHT22;11455;52.390;13.028;2022-08-21T11:30:30;23.40;1.00
22578;DHT22;11455;52.390;13.028;2022-08-21T11:40:43;23.70;1.00
22578;DHT22;11455;52.390;13.028;2022-08-21T11:46:03;23.90;1.00
22578;DHT22;11455;52.390;13.028;2022-08-21T11:48:40;24.00;1.00
22578;DHT22;11455;52.390;13.028;2022-08-21T11:51:20;24.10;1.00
22578;DHT22;11455;52.390;13.028;2022-08-21T11:54:03;24.30;1.00
22578;DHT22;11455;52.390;13.028;2022-08-21T11:56:32;24.40;1.00
22578;DHT22;11455;52.390;13.028;2022-08-21T11:59:02;24.40;1.00
22578;DHT22;11455;52.390;13.028;2022-08-21T12:01:34;24.50;1.00
22578;DHT22;11455;52.390;13.028;2022-08-21T12:04:02;24.50;1.00
22578;DHT22;11455;52.390;13.028;2022-08-21T12:06:30;24.60;1.00
22578;DHT22;11455;52.390;13.028;2022-08-21T12:09:00;24.70;1.00
22578;DHT22;11455;52.390;13.028;2022-08-21T12:11:28;24.60;1.00
22578;DHT22;11455;52.390;13.028;2022-08-21T12:16:38;24.30;1.00
22578;DHT22;11455;52.390;13.028;2022-08-21T12:21:30;24.50;1.00
22578;DHT22;11455;52.390;13.028;2022-08-21T12:28:50;24.50;1.00
22578;DHT22;11455;52.390;13.028;2022-08-21T12:31:20;24.50;1.00
22578;DHT22;11455;52.390;13.028;2022-08-21T12:33:49;24.30;1.00
22578;DHT22;11455;52.390;13.028;2022-08-21T12:36:17;24.30;1.00
22578;DHT22;11455;52.390;13.028;2022-08-21T12:39:03;24.40;1.00
22578;DHT22;11455;52.390;13.028;2022-08-21T12:41:41;24.50;1.00
22578;DHT22;11455;52.390;13.028;2022-08-21T12:44:13;24.70;1.00
22578;DHT22;11455;52.390;13.028;2022-08-21T12:46:42;24.90;1.00
22578;DHT22;11455;52.390;13.028;2022-08-21T12:51:42;25.20;1.00
22578;DHT22;11455;52.390;13.028;2022-08-21T12:54:21;25.10;1.00
22578;DHT22;11455;52.390;13.028;2022-08-21T12:56:54;25.00;1.00
22578;DHT22;11455;52.390;13.028;2022-08-21T12:59:20;25.00;1.00
22578;DHT22;11455;52.390;13.028;2022-08-21T13:01:49;24.80;1.00
22578;DHT22;11455;52.390;13.028;2022-08-21T13:04:17;24.70;1.00
22578;DHT22;11455;52.390;13.028;2022-08-21T13:06:46;24.50;1.00
22578;DHT22;11455;52.390;13.028;2022-08-21T13:09:14;24.50;1.00
22578;DHT22;11455;52.390;13.028;2022-08-21T13:11:41;24.50;1.00
22578;DHT22;11455;52.390;13.028;2022-08-21T13:14:24;24.40;1.00
22578;DHT22;11455;52.390;13.028;2022-08-21T13:16:54;24.30;1.00
22578;DHT22;11455;52.390;13.028;2022-08-21T13:19:20;24.20;1.00
22578;DHT22;11455;52.390;13.028;2022-08-21T13:21:46;24.10;1.00
22578;DHT22;11455;52.390;13.028;2022-08-21T13:24:22;24.10;1.00
22578;DHT22;11455;52.390;13.028;2022-08-21T13:26:49;24.10;1.00
22578;DHT22;11455;52.390;13.028;2022-08-21T13:29:16;24.30;1.00
22578;DHT22;11455;52.390;13.028;2022-08-21T13:31:47;24.20;1.00
22578;DHT22;11455;52.390;13.028;2022-08-21T13:34:16;24.10;1.00
22578;DHT22;11455;52.390;13.028;2022-08-21T13:36:43;24.00;1.00
22578;DHT22;11455;52.390;13.028;2022-08-21T13:39:12;23.80;1.00
22578;DHT22;11455;52.390;13.028;2022-08-21T13:41:43;23.70;1.00
22578;DHT22;11455;52.390;13.028;2022-08-21T13:44:19;23.80;1.00
22578;DHT22;11455;52.390;13.028;2022-08-21T13:46:46;23.90;1.00
22578;DHT22;11455;52.390;13.028;2022-08-21T13:49:16;23.90;1.00
22578;DHT22;11455;52.390;13.028;2022-08-21T13:51:42;23.90;1.00
22578;DHT22;11455;52.390;13.028;2022-08-21T13:56:56;23.90;1.00
22578;DHT22;11455;52.390;13.028;2022-08-21T14:01:52;23.90;1.00
22578;DHT22;11455;52.390;13.028;2022-08-21T14:04:20;24.00;1.00
22578;DHT22;11455;52.390;13.028;2022-08-21T14:06:47;24.10;1.00
22578;DHT22;11455;52.390;13.028;2022-08-21T14:09:20;24.20;1.00
22578;DHT22;11455;52.390;13.028;2022-08-21T14:11:47;24.10;1.00
22578;DHT22;11455;52.390;13.028;2022-08-21T14:14:19;24.20;1.00
22578;DHT22;11455;52.390;13.028;2022-08-21T14:16:52;24.20;1.00
22578;DHT22;11455;52.390;13.028;2022-08-21T14:19:20;24.30;1.00
22578;DHT22;11455;52.390;13.028;2022-08-21T14:21:46;24.40;1.00
22578;DHT22;11455;52.390;13.028;2022-08-21T14:24:13;24.50;1.00
22578;DHT22;11455;52.390;13.028;2022-08-21T14:26:53;24.50;1.00
22578;DHT22;11455;52.390;13.028;2022-08-21T14:29:20;24.50;1.00
22578;DHT22;11455;52.390;13.028;2022-08-21T14:31:54;24.60;1.00
22578;DHT22;11455;52.390;13.028;2022-08-21T14:34:20;24.60;1.00
22578;DHT22;11455;52.390;13.028;2022-08-21T14:36:46;24.50;1.00
22578;DHT22;11455;52.390;13.028;2022-08-21T14:39:12;24.40;1.00
22578;DHT22;11455;52.390;13.028;2022-08-21T14:41:38;24.30;1.00
22578;DHT22;11455;52.390;13.028;2022-08-21T14:44:04;24.20;1.00
22578;DHT22;11455;52.390;13.028;2022-08-21T14:46:30;24.20;1.00
22578;DHT22;11455;52.390;13.028;2022-08-21T14:48:57;24.20;1.00
22578;DHT22;11455;52.390;13.028;2022-08-21T14:51:23;24.30;1.00
22578;DHT22;11455;52.390;13.028;2022-08-21T14:53:48;24.30;1.00
22578;DHT22;11455;52.390;13.028;2022-08-21T14:56:17;24.30;1.00
22578;DHT22;11455;52.390;13.028;2022-08-21T14:58:44;24.30;1.00
22578;DHT22;11455;52.390;13.028;2022-08-21T15:01:16;24.40;1.00
22578;DHT22;11455;52.390;13.028;2022-08-21T15:03:44;24.40;1.00
22578;DHT22;11455;52.390;13.028;2022-08-21T15:06:10;24.60;1.00
22578;DHT22;11455;52.390;13.028;2022-08-21T15:08:36;24.70;1.00
22578;DHT22;11455;52.390;13.028;2022-08-21T15:11:02;24.90;1.00
22578;DHT22;11455;52.390;13.028;2022-08-21T15:13:28;25.00;1.00
22578;DHT22;11455;52.390;13.028;2022-08-21T15:15:54;25.10;1.00
22578;DHT22;11455;52.390;13.028;2022-08-21T15:18:28;25.20;1.00
22578;DHT22;11455;52.390;13.028;2022-08-21T15:20:53;25.20;1.00
22578;DHT22;11455;52.390;13.028;2022-08-21T15:23:19;25.10;1.00
22578;DHT22;11455;52.390;13.028;2022-08-21T15:25:46;25.20;1.00
22578;DHT22;11455;52.390;13.028;2022-08-21T15:28:12;25.20;1.00
22578;DHT22;11455;52.390;13.028;2022-08-21T15:30:38;25.10;1.00
22578;DHT22;11455;52.390;13.028;2022-08-21T15:33:05;25.20;1.00
22578;DHT22;11455;52.390;13.028;2022-08-21T15:35:31;25.20;1.00
22578;DHT22;11455;52.390;13.028;2022-08-21T15:37:59;25.20;1.00
22578;DHT22;11455;52.390;13.028;2022-08-21T15:40:30;25.10;1.00
22578;DHT22;11455;52.390;13.028;2022-08-21T15:42:59;25.30;1.00
22578;DHT22;11455;52.390;13.028;2022-08-21T15:45:25;25.40;1.00
22578;DHT22;11455;52.390;13.028;2022-08-21T15:47:51;25.50;1.00
22578;DHT22;11455;52.390;13.028;2022-08-21T15:50:17;25.60;1.00
22578;DHT22;11455;52.390;13.028;2022-08-21T15:52:43;25.70;1.00
22578;DHT22;11455;52.390;13.028;2022-08-21T15:55:15;25.60;1.00
22578;DHT22;11455;52.390;13.028;2022-08-21T15:57:42;25.60;1.00
22578;DHT22;11455;52.390;13.028;2022-08-21T16:00:12;25.70;1.00
22578;DHT22;11455;52.390;13.028;2022-08-21T16:02:39;25.70;1.00
22578;DHT22;11455;52.390;13.028;2022-08-21T16:05:09;25.80;1.00
22578;DHT22;11455;52.390;13.028;2022-08-21T16:07:37;25.80;1.00
22578;DHT22;11455;52.390;13.028;2022-08-21T16:10:04;25.80;1.00
22578;DHT22;11455;52.390;13.028;2022-08-21T16:12:31;25.90;1.00
22578;DHT22;11455;52.390;13.028;2022-08-21T16:14:58;25.80;1.00
22578;DHT22;11455;52.390;13.028;2022-08-21T16:17:26;25.80;1.00
22578;DHT22;11455;52.390;13.028;2022-08-21T16:19:55;25.80;1.00
22578;DHT22;11455;52.390;13.028;2022-08-21T16:22:21;25.80;1.00
22578;DHT22;11455;52.390;13.028;2022-08-21T16:24:46;25.90;1.00
22578;DHT22;11455;52.390;13.028;2022-08-21T16:27:12;26.00;1.00
22578;DHT22;11455;52.390;13.028;2022-08-21T16:29:38;26.00;1.00
22578;DHT22;11455;52.390;13.028;2022-08-21T16:32:04;25.80;1.00
22578;DHT22;11455;52.390;13.028;2022-08-21T16:34:30;25.80;1.00
22578;DHT22;11455;52.390;13.028;2022-08-21T16:36:58;25.90;1.00
22578;DHT22;11455;52.390;13.028;2022-08-21T16:39:24;25.90;1.00
22578;DHT22;11455;52.390;13.028;2022-08-21T16:41:52;26.00;1.00
22578;DHT22;11455;52.390;13.028;2022-08-21T16:44:21;26.00;1.00
22578;DHT22;11455;52.390;13.028;2022-08-21T16:46:49;26.00;1.00